首页
METAR-TAF:

METAR-TAF

机场 :

加尔各答, 印度

内塔吉·苏巴斯·钱德拉·鲍斯国际机场

纬度: 22-39N, 经度: 088-27E, 海拔: 4米

当前天气观测

该预报发布于22分钟前的22:00 UTC
风速9节,风向东转东南
温度 26°C
湿度 70%
气压 1005 hPa
能見度: 3000
少量云层高于2000英尺

METAR: VECC 252200Z 12009KT 3000 HZ FEW020 26/20 Q1005 NOSIG

时间: 03:52 (22:22 UTC)

预报

该预报发布于5小时和22分钟前的17:00 UTC
预报有效从25日的 18点(UTC)到 26日的 24点(UTC)
风速8节,风向
能見度: 2800
少量云层高于2000英尺
散云层高于10000英尺
成为
从 26日的 03点(UTC)到 26日的 05点(UTC)
能見度: 3500
几率 30% :
短暂存在
从 26日的 12点(UTC)到 26日的 16点(UTC)
能見度: 1500
散云层高于1500英尺
少量云层高于2500英尺, 积雨云.
多云层高于9000英尺
雷暴, 雨
成为
从 26日的 16点(UTC)到 26日的 18点(UTC)
能見度: 2800

TAF: VECC 251700Z 2518/2624 18008KT 2800 HZ FEW020 SCT100 BECMG 2603/2605 3500 HZ PROB30 TEMPO 2612/2616 1500 TSRA SCT015 FEW025CB BKN090 BECMG 2616/2618 2800 HZ

超过4000个机场的气象观测和天气预报(METAR&TAF报告)。

可查询的气象台以黄色和红色小点在地图上表示。

将鼠标移到小点上方,可查看气象台名称。

然后点击查看天气观测和预报。

如需切换地图:点击带黑十字的绿色按钮放大地图;点击带横线的绿色按钮缩小地图;或者点击绿色箭头查看邻近地区的地图。


METAR-TAF: